Time;durP1;ratioP1;P1;durP2;ratioP2;P2;SDS_P1;SDS_P2;PMS_P1;PMS_P2;Temp;Humidity;BMP_temperature;BMP_pressure;BME280_temperature;BME280_humidity;BME280_pressure;Samples;Min_cycle;Max_cycle;Signal;HPM_P1;HPM_P2
2022/04/26 03:40:52;;;;;;;9.55;6.22;;;;;;;6.39;100.00;101485.00;10193879;28;20082;-63
2022/04/26 03:45:49;;;;;;;13.25;6.55;;;;;;;6.32;100.00;101492.59;10179637;28;20077;-63
2022/04/26 03:50:45;;;;;;;10.60;7.05;;;;;;;6.24;100.00;101501.25;10186250;28;20078;-63
2022/04/26 03:55:42;;;;;;;12.75;7.03;;;;;;;6.33;100.00;101494.22;10179022;28;20483;-64
2022/04/26 04:00:39;;;;;;;12.18;6.63;;;;;;;6.29;100.00;101493.16;10174602;28;20043;-64
2022/04/26 04:05:35;;;;;;;12.93;7.07;;;;;;;6.29;100.00;101495.88;10177114;28;20037;-64
2022/04/26 04:10:32;;;;;;;11.57;6.90;;;;;;;6.25;100.00;101501.00;10157570;28;20050;-64
2022/04/26 04:15:29;;;;;;;13.70;7.30;;;;;;;6.26;100.00;101496.38;10176636;28;20423;-64
2022/04/26 04:20:25;;;;;;;13.80;6.97;;;;;;;6.23;100.00;101502.34;10196531;28;20457;-64
2022/04/26 04:25:22;;;;;;;13.15;7.13;;;;;;;6.20;100.00;101502.91;10195111;28;20066;-64
2022/04/26 04:30:18;;;;;;;13.00;7.68;;;;;;;6.21;100.00;101499.09;10197091;28;20124;-64
2022/04/26 04:35:15;;;;;;;13.25;7.38;;;;;;;6.20;100.00;101497.47;10174799;28;20077;-64
2022/04/26 04:40:11;;;;;;;15.15;7.30;;;;;;;6.21;100.00;101504.53;10195541;28;20084;-64
2022/04/26 04:45:08;;;;;;;14.38;7.10;;;;;;;6.21;100.00;101515.38;10195329;28;20419;-65
2022/04/26 04:50:05;;;;;;;11.60;7.63;;;;;;;6.21;100.00;101516.19;10181550;28;20090;-64
2022/04/26 04:55:02;;;;;;;11.88;7.07;;;;;;;6.25;100.00;101527.34;10171866;28;20050;-64
2022/04/26 05:00:04;;;;;;;11.50;7.50;;;;;;;6.30;100.00;101527.34;10169076;28;20172;-64
2022/04/26 05:05:01;;;;;;;10.38;7.00;;;;;;;6.33;100.00;101532.25;10171091;28;20499;-65
2022/04/26 05:09:58;;;;;;;12.45;7.72;;;;;;;6.37;100.00;101541.50;10159859;28;20089;-64
2022/04/26 05:14:54;;;;;;;11.77;7.05;;;;;;;6.44;100.00;101542.03;10168566;28;20511;-64
2022/04/26 05:19:50;;;;;;;15.90;7.57;;;;;;;6.47;100.00;101552.34;10154422;28;20054;-64
2022/04/26 05:24:53;;;;;;;12.13;7.32;;;;;;;6.53;100.00;101545.03;10163058;28;20604;-65
2022/04/26 05:29:50;;;;;;;14.85;8.25;;;;;;;6.61;100.00;101552.66;10154409;28;20093;-64
2022/04/26 05:34:47;;;;;;;13.50;8.00;;;;;;;6.69;100.00;101554.03;10161460;28;20497;-64
2022/04/26 05:39:43;;;;;;;14.30;8.15;;;;;;;6.82;100.00;101568.97;10153404;28;20134;-64
2022/04/26 05:44:40;;;;;;;12.77;7.80;;;;;;;6.93;100.00;101560.53;10166121;28;20104;-64
2022/04/26 05:49:36;;;;;;;13.02;7.95;;;;;;;7.07;100.00;101560.00;10193508;28;20085;-64
2022/04/26 05:54:33;;;;;;;11.50;7.35;;;;;;;7.29;100.00;101568.69;10177236;28;20054;-64
2022/04/26 05:59:29;;;;;;;11.82;7.72;;;;;;;7.56;100.00;101568.31;10193985;28;20120;-65
2022/04/26 06:04:26;;;;;;;13.52;8.32;;;;;;;7.93;100.00;101552.69;10188295;28;20107;-64
2022/04/26 06:09:23;;;;;;;12.98;7.70;;;;;;;8.16;100.00;101553.94;10205952;28;20046;-64
2022/04/26 06:14:21;;;;;;;13.23;7.30;;;;;;;8.16;100.00;101554.72;10206332;28;20085;-64
2022/04/26 06:19:17;;;;;;;10.98;7.18;;;;;;;8.26;100.00;101561.22;10181292;28;20120;-64
2022/04/26 06:24:14;;;;;;;12.55;7.30;;;;;;;8.28;100.00;101564.47;10175365;28;20073;-64
2022/04/26 06:29:15;;;;;;;12.50;7.70;;;;;;;8.58;100.00;101561.56;10168312;28;20130;-65
2022/04/26 06:34:11;;;;;;;9.95;6.43;;;;;;;8.95;100.00;101568.38;10173119;28;20483;-64
2022/04/26 06:39:08;;;;;;;15.40;8.48;;;;;;;9.27;100.00;101567.00;10165818;28;20572;-65
2022/04/26 06:44:04;;;;;;;12.07;7.53;;;;;;;9.52;100.00;101559.66;10171722;28;20074;-64
2022/04/26 06:49:01;;;;;;;10.70;6.43;;;;;;;9.64;100.00;101565.53;10165790;28;20133;-65
2022/04/26 06:53:58;;;;;;;12.15;6.45;;;;;;;9.84;100.00;101568.03;10173788;28;20042;-64
2022/04/26 06:58:54;;;;;;;8.88;5.97;;;;;;;9.99;100.00;101571.66;10205527;28;20642;-65
2022/04/26 07:03:51;;;;;;;10.95;5.47;;;;;;;10.11;100.00;101574.78;10205633;28;20112;-65
2022/04/26 07:08:48;;;;;;;8.13;5.03;;;;;;;10.39;100.00;101577.72;10205507;28;20042;-65
2022/04/26 07:13:45;;;;;;;8.18;5.18;;;;;;;10.45;100.00;101590.19;10168058;28;20081;-65
2022/04/26 07:18:41;;;;;;;9.60;5.10;;;;;;;10.50;100.00;101584.66;10195549;28;20053;-64
2022/04/26 07:23:44;;;;;;;9.10;5.63;;;;;;;10.67;100.00;101593.13;10163267;28;20133;-65
2022/04/26 07:28:40;;;;;;;9.00;5.45;;;;;;;10.88;100.00;101587.34;10194061;28;20073;-64
2022/04/26 07:38:52;;;;;;;11.05;4.90;;;;;;;10.92;100.00;101583.72;10158353;28;20054;-64
2022/04/26 07:43:48;;;;;;;8.88;5.30;;;;;;;11.15;100.00;101592.91;10164196;28;20073;-65
2022/04/26 07:48:45;;;;;;;7.32;4.75;;;;;;;11.22;100.00;101588.97;10172037;28;20057;-65
2022/04/26 07:53:41;;;;;;;9.80;5.45;;;;;;;11.38;100.00;101584.84;10163545;28;20528;-64
2022/04/26 07:58:38;;;;;;;8.25;5.07;;;;;;;11.47;100.00;101604.94;10158785;28;20043;-65
2022/04/26 08:03:35;;;;;;;8.35;5.10;;;;;;;11.53;100.00;101592.78;10161802;28;20088;-65
2022/04/26 08:08:32;;;;;;;9.55;5.47;;;;;;;11.69;100.00;101589.75;10196487;28;20050;-65
2022/04/26 08:13:29;;;;;;;9.32;5.10;;;;;;;11.82;100.00;101602.63;10193385;28;20048;-65
2022/04/26 08:18:25;;;;;;;9.00;5.20;;;;;;;11.86;100.00;101609.13;10196335;28;20049;-65
2022/04/26 08:23:22;;;;;;;7.93;4.53;;;;;;;12.00;99.67;101612.72;10176518;28;20147;-64
2022/04/26 08:28:18;;;;;;;8.25;4.93;;;;;;;12.04;95.41;101612.09;10195722;28;20042;-64
2022/04/26 08:33:14;;;;;;;9.55;4.63;;;;;;;12.17;95.01;101616.75;10196500;28;20072;-64
2022/04/26 08:38:11;;;;;;;8.27;3.60;;;;;;;12.41;91.77;101627.47;10195515;28;20077;-64
2022/04/26 08:43:07;;;;;;;7.50;3.63;;;;;;;12.55;87.06;101627.44;10159033;28;20073;-65
2022/04/26 08:53:27;;;;;;;6.32;4.07;;;;;;;12.96;88.64;101626.50;10196539;28;20040;-65
2022/04/26 08:58:27;;;;;;;8.07;3.60;;;;;;;13.04;83.71;101628.47;10169305;28;20145;-64
2022/04/26 09:03:23;;;;;;;8.07;3.95;;;;;;;13.16;84.75;101636.13;10157891;28;20081;-64
2022/04/26 09:08:21;;;;;;;6.20;3.70;;;;;;;13.34;86.91;101631.59;10193656;28;20057;-64
2022/04/26 09:13:20;;;;;;;8.35;3.88;;;;;;;13.51;87.08;101637.22;10194066;28;20101;-65
2022/04/26 09:18:37;;;;;;;7.53;3.55;;;;;;;13.75;75.32;101630.53;10194475;28;20082;-65
2022/04/26 09:23:33;;;;;;;5.80;3.50;;;;;;;13.83;75.92;101627.00;10189652;28;20065;-64
2022/04/26 09:28:30;;;;;;;5.78;3.40;;;;;;;13.98;76.54;101623.81;10193958;28;20050;-65
2022/04/26 09:33:38;;;;;;;6.63;3.13;;;;;;;14.23;73.17;101614.03;10178836;28;20124;-64
2022/04/26 09:38:36;;;;;;;6.50;3.47;;;;;;;14.48;66.30;101620.69;10193476;28;20096;-65
2022/04/26 09:43:33;;;;;;;6.78;3.50;;;;;;;14.58;57.84;101621.53;10164135;28;20070;-65
2022/04/26 09:48:37;;;;;;;8.55;3.97;;;;;;;14.78;64.17;101623.63;10183396;28;20074;-65
2022/04/26 09:53:34;;;;;;;5.88;3.85;;;;;;;14.57;65.20;101622.66;10158470;28;20097;-65
2022/04/26 09:58:32;;;;;;;5.68;3.33;;;;;;;14.30;68.85;101627.31;10183375;28;20042;-65
2022/04/26 10:03:31;;;;;;;6.93;3.83;;;;;;;15.06;57.12;101631.56;10157169;28;20092;-65
2022/04/26 10:08:30;;;;;;;5.68;3.03;;;;;;;16.23;62.89;101625.81;10192840;28;20050;-65
2022/04/26 10:13:32;;;;;;;7.38;3.67;;;;;;;18.03;56.19;101628.31;10192786;28;20096;-65
2022/04/26 10:18:43;;;;;;;7.13;3.72;;;;;;;19.03;45.42;101628.56;10153507;28;20062;-65
2022/04/26 10:23:52;;;;;;;5.75;3.75;;;;;;;19.49;46.56;101620.66;10158799;28;20515;-65
2022/04/26 10:29:02;;;;;;;6.90;4.00;;;;;;;20.70;42.50;101621.94;10193316;28;20534;-65
2022/04/26 10:33:59;;;;;;;6.30;3.90;;;;;;;21.82;37.38;101619.25;10183113;28;20567;-65
2022/04/26 10:39:05;;;;;;;5.90;4.07;;;;;;;21.56;37.19;101623.59;10185071;28;20050;-65
2022/04/26 10:44:22;;;;;;;10.95;4.25;;;;;;;20.05;35.04;101624.44;10161044;28;20589;-65
2022/04/26 10:49:24;;;;;;;7.68;3.15;;;;;;;18.71;37.41;101631.19;10175782;28;20137;-65
2022/04/26 10:54:48;;;;;;;5.53;3.90;;;;;;;17.10;39.55;101627.91;10171189;28;20096;-65
2022/04/26 10:59:48;;;;;;;6.60;4.05;;;;;;;16.34;39.48;101629.81;10161257;28;20419;-65
2022/04/26 11:04:45;;;;;;;7.10;4.18;;;;;;;15.92;41.03;101637.97;10160059;28;20120;-66
2022/04/26 11:09:50;;;;;;;8.77;4.18;;;;;;;15.52;41.42;101635.50;10159690;28;20058;-65
2022/04/26 11:14:49;;;;;;;6.35;4.10;;;;;;;17.30;40.25;101638.09;10172672;28;20132;-65
2022/04/26 11:19:53;;;;;;;8.10;3.60;;;;;;;19.16;39.16;101634.03;10199163;28;20050;-65
2022/04/26 11:30:23;;;;;;;7.70;3.72;;;;;;;19.95;35.31;101640.47;10192840;28;20042;-65
2022/04/26 11:35:20;;;;;;;5.88;3.08;;;;;;;20.50;35.92;101642.53;10176427;28;20124;-65
2022/04/26 11:40:27;;;;;;;7.32;4.18;;;;;;;20.97;33.35;101635.97;10190833;28;20278;-65
2022/04/26 11:45:30;;;;;;;4.32;3.00;;;;;;;21.50;32.64;101647.34;10178157;28;20072;-65
2022/04/26 11:50:28;;;;;;;5.75;3.72;;;;;;;21.39;32.06;101641.53;10173132;28;20074;-62
2022/04/26 11:55:30;;;;;;;5.45;3.55;;;;;;;20.46;31.19;101645.19;10176269;28;20049;-65
2022/04/26 12:00:27;;;;;;;5.17;3.10;;;;;;;19.48;32.55;101652.34;10159893;28;20074;-65
2022/04/26 12:05:24;;;;;;;6.07;4.00;;;;;;;17.97;34.99;101654.59;10174208;28;21002;-65
2022/04/26 12:10:28;;;;;;;5.82;3.53;;;;;;;17.08;35.76;101655.06;10158173;28;20050;-65
2022/04/26 12:15:33;;;;;;;5.55;3.95;;;;;;;17.22;34.92;101641.78;10159037;28;20574;-65
2022/04/26 12:20:30;;;;;;;8.95;3.67;;;;;;;17.30;36.27;101649.16;10157450;28;20043;-65
2022/04/26 12:25:26;;;;;;;5.22;3.08;;;;;;;17.91;38.26;101650.44;10176422;28;20476;-64
2022/04/26 12:30:27;;;;;;;5.70;3.70;;;;;;;18.17;36.30;101645.38;10197346;28;20041;-65
2022/04/26 12:35:24;;;;;;;6.60;3.35;;;;;;;17.70;34.34;101650.50;10187656;28;20121;-65
2022/04/26 12:40:20;;;;;;;7.00;3.17;;;;;;;17.78;34.29;101646.84;10195624;28;20335;-64
2022/04/26 12:45:21;;;;;;;7.82;4.20;;;;;;;17.93;34.23;101650.91;10195328;28;20558;-65
2022/04/26 12:50:28;;;;;;;7.55;3.42;;;;;;;18.06;34.53;101649.75;10188907;28;20120;-65
2022/04/26 12:55:39;;;;;;;7.70;3.70;;;;;;;17.97;34.71;101640.78;10174137;28;20123;-65
2022/04/26 13:00:42;;;;;;;5.68;3.17;;;;;;;17.56;34.40;101640.56;10170397;28;20112;-65
2022/04/26 13:05:41;;;;;;;;;;;;;;;17.55;36.29;101640.94;10176730;28;20081;-65
2022/04/26 13:10:40;;;;;;;8.23;3.70;;;;;;;17.78;34.65;101646.84;10192550;28;19925;-65
2022/04/26 13:15:37;;;;;;;5.47;2.92;;;;;;;17.23;34.78;101635.88;10175987;28;20050;-65
2022/04/26 13:20:34;;;;;;;7.40;3.45;;;;;;;16.76;35.78;101640.88;10173824;28;20054;-65
2022/04/26 13:25:36;;;;;;;6.72;3.65;;;;;;;16.54;35.82;101648.31;10174954;28;20774;-65
2022/04/26 13:30:33;;;;;;;5.72;3.35;;;;;;;16.35;36.85;101645.22;10157948;28;20688;-65
2022/04/26 13:35:30;;;;;;;9.02;3.53;;;;;;;16.24;36.31;101649.50;10173443;28;20459;-65
2022/04/26 13:40:26;;;;;;;5.05;3.05;;;;;;;16.29;37.51;101641.00;10194638;28;20045;-65
2022/04/26 13:45:25;;;;;;;6.10;3.63;;;;;;;16.29;38.94;101638.25;10192172;28;20483;-65
2022/04/26 13:50:22;;;;;;;6.50;3.30;;;;;;;16.19;38.86;101634.75;10194295;28;20068;-66
2022/04/26 13:55:19;;;;;;;8.90;3.63;;;;;;;16.15;38.09;101642.09;10173346;28;20523;-65
2022/04/26 14:00:16;;;;;;;6.65;4.20;;;;;;;16.02;38.15;101647.84;10181617;28;20101;-65
2022/04/26 14:05:13;;;;;;;7.28;4.07;;;;;;;15.98;39.41;101653.19;10170414;28;20081;-65
2022/04/26 14:10:10;;;;;;;6.68;3.83;;;;;;;16.20;39.46;101647.41;10174069;28;20134;-65
2022/04/26 14:25:38;;;;;;;6.75;4.47;;;;;;;17.65;35.89;101651.53;10168295;28;20467;-65
2022/04/26 14:30:34;;;;;;;7.18;4.32;;;;;;;17.70;36.65;101648.53;10161448;28;20081;-65
2022/04/26 14:35:37;;;;;;;5.88;3.65;;;;;;;17.54;35.74;101648.41;10182060;28;20045;-65
2022/04/26 14:40:33;;;;;;;7.03;4.15;;;;;;;17.22;36.04;101647.31;10201446;28;20053;-65
2022/04/26 14:45:33;;;;;;;6.45;4.07;;;;;;;16.77;37.22;101651.56;10189493;28;20042;-64
2022/04/26 14:50:30;;;;;;;8.57;4.00;;;;;;;16.43;38.13;101652.63;10200385;28;20057;-65
2022/04/26 14:55:26;;;;;;;6.95;4.07;;;;;;;16.70;37.65;101645.75;10181596;28;20053;-65
2022/04/26 15:00:23;;;;;;;6.30;4.30;;;;;;;16.48;37.43;101649.69;10194220;28;20120;-65
2022/04/26 15:05:20;;;;;;;7.28;4.35;;;;;;;16.40;37.17;101648.56;10177649;28;20049;-65
2022/04/26 15:10:16;;;;;;;8.35;4.13;;;;;;;16.27;38.19;101646.06;10184809;28;20082;-63
2022/04/26 15:20:28;;;;;;;5.97;4.07;;;;;;;16.35;38.01;101646.00;10165367;28;20057;-65
2022/04/26 15:25:24;;;;;;;10.05;4.10;;;;;;;16.41;38.31;101643.88;10166977;28;20702;-65
2022/04/26 15:30:21;;;;;;;6.45;3.90;;;;;;;16.76;38.94;101643.63;10159237;28;20078;-65
2022/04/26 15:35:17;;;;;;;5.43;3.35;;;;;;;16.72;38.82;101648.19;10175596;28;20504;-65
2022/04/26 15:40:13;;;;;;;6.55;3.58;;;;;;;17.16;37.41;101640.38;10198709;28;20073;-65
2022/04/26 15:45:10;;;;;;;5.63;3.55;;;;;;;17.50;35.92;101644.72;10175292;28;20129;-64
2022/04/26 15:50:07;;;;;;;5.53;3.17;;;;;;;17.53;37.05;101644.03;10192640;28;20080;-63
2022/04/26 15:55:04;;;;;;;7.30;4.13;;;;;;;17.90;35.11;101649.66;10174185;28;20096;-65
2022/04/26 16:00:01;;;;;;;9.05;3.78;;;;;;;18.30;36.65;101643.38;10182631;28;20756;-64
2022/04/26 16:04:57;;;;;;;6.95;3.78;;;;;;;18.83;34.16;101648.97;10155529;28;20070;-63
2022/04/26 16:20:29;;;;;;;7.20;3.50;;;;;;;19.81;29.96;101651.22;10168698;28;20519;-65
2022/04/26 16:25:26;;;;;;;5.40;2.40;;;;;;;20.36;28.33;101641.03;10176314;28;20561;-66
2022/04/26 16:30:23;;;;;;;5.82;3.10;;;;;;;20.75;28.71;101652.22;10160112;28;20496;-65
2022/04/26 16:35:20;;;;;;;7.22;2.97;;;;;;;20.94;29.16;101658.97;10173565;28;20125;-65
2022/04/26 16:40:17;;;;;;;8.35;3.40;;;;;;;21.21;29.94;101663.47;10156520;28;20074;-65
2022/04/26 16:45:13;;;;;;;10.05;3.65;;;;;;;21.20;30.45;101666.63;10170846;28;20054;-65
2022/04/26 16:50:12;;;;;;;9.07;3.50;;;;;;;21.14;30.20;101668.91;10156317;28;20504;-64
2022/04/26 16:55:09;;;;;;;7.32;3.15;;;;;;;21.00;30.65;101676.94;10160718;28;20117;-64
2022/04/26 17:00:06;;;;;;;7.15;3.17;;;;;;;21.41;30.99;101682.94;10155789;28;20082;-65
2022/04/26 17:05:02;;;;;;;9.05;3.55;;;;;;;20.83;31.14;101680.97;10157352;28;20046;-65
2022/04/26 17:09:59;;;;;;;6.65;3.50;;;;;;;20.49;31.91;101677.00;10155844;28;20065;-65
2022/04/26 17:14:56;;;;;;;6.75;3.53;;;;;;;20.04;32.62;101695.00;10169701;28;20042;-65
2022/04/26 17:19:52;;;;;;;7.90;3.50;;;;;;;19.61;34.30;101707.72;10181692;28;20108;-65
2022/04/26 17:30:16;;;;;;;9.45;3.28;;;;;;;18.75;36.89;101713.59;10176327;28;20081;-65
2022/04/26 17:35:13;;;;;;;7.45;3.08;;;;;;;18.26;37.69;101720.81;10171776;28;20084;-65
2022/04/26 17:40:12;;;;;;;6.03;3.42;;;;;;;17.53;39.15;101732.50;10166251;28;20077;-65
2022/04/26 17:45:09;;;;;;;5.68;3.05;;;;;;;17.03;40.39;101737.03;10170976;28;20093;-65
2022/04/26 17:50:07;;;;;;;16.77;3.00;;;;;;;16.60;41.89;101746.38;10164016;28;20082;-64
2022/04/26 18:00:18;;;;;;;12.27;4.38;;;;;;;16.19;43.33;101764.41;10193530;28;20054;-65
2022/04/26 18:05:16;;;;;;;7.70;3.47;;;;;;;15.81;45.14;101769.09;10186517;28;20141;-64
2022/04/26 18:10:13;;;;;;;11.32;3.70;;;;;;;15.67;47.04;101775.56;10154027;28;20480;-65
2022/04/26 18:15:10;;;;;;;7.43;2.97;;;;;;;15.51;51.07;101782.72;10169648;28;20065;-65
2022/04/26 18:20:06;;;;;;;7.47;3.05;;;;;;;15.38;54.27;101791.97;10192861;28;20062;-64
2022/04/26 18:25:03;;;;;;;6.95;2.70;;;;;;;15.25;55.94;101797.31;10183164;28;20065;-65
2022/04/26 18:30:00;;;;;;;4.60;3.25;;;;;;;15.05;52.78;101817.22;10191494;28;20085;-64
2022/04/26 18:34:56;;;;;;;6.55;3.75;;;;;;;15.04;52.41;101819.19;10167831;28;20078;-65
2022/04/26 18:39:53;;;;;;;6.53;3.85;;;;;;;14.99;52.26;101821.25;10191799;28;20054;-65
2022/04/26 18:44:49;;;;;;;6.00;3.47;;;;;;;14.91;53.87;101831.94;10192137;28;20128;-65
2022/04/26 18:49:47;;;;;;;6.32;3.28;;;;;;;14.82;54.56;101844.84;10180652;28;20129;-64
2022/04/26 18:54:44;;;;;;;8.50;3.80;;;;;;;14.70;55.05;101858.44;10165767;28;20643;-65
2022/04/26 18:59:55;;;;;;;7.25;3.75;;;;;;;14.55;60.72;101864.34;10191309;28;20084;-65
2022/04/26 19:04:51;;;;;;;7.70;4.22;;;;;;;14.30;62.52;101872.13;10185358;28;20100;-65
2022/04/26 19:15:02;;;;;;;7.78;4.07;;;;;;;14.03;66.55;101890.41;10174884;28;20120;-64
2022/04/26 19:19:59;;;;;;;7.65;4.35;;;;;;;13.86;72.30;101895.78;10199653;28;20073;-65
2022/04/26 19:24:55;;;;;;;8.10;4.60;;;;;;;13.71;69.54;101915.38;10190467;28;20076;-65
2022/04/26 19:29:52;;;;;;;8.15;4.70;;;;;;;13.57;72.36;101913.47;10199010;28;20112;-65
2022/04/26 19:34:48;;;;;;;8.35;4.78;;;;;;;13.43;75.88;101915.44;10204173;28;20112;-65
2022/04/26 19:39:44;;;;;;;7.50;4.68;;;;;;;13.29;76.63;101914.63;10197774;28;20046;-65
2022/04/26 19:44:41;;;;;;;7.78;4.53;;;;;;;13.15;75.39;101914.63;10187055;28;20669;-65
2022/04/26 19:49:38;;;;;;;10.40;5.63;;;;;;;13.00;77.99;101921.25;10198479;28;20077;-65
2022/04/26 19:54:34;;;;;;;9.95;5.25;;;;;;;12.93;78.14;101923.56;10172874;28;20061;-65
2022/04/26 19:59:32;;;;;;;7.57;4.80;;;;;;;12.83;81.15;101938.28;10196711;28;20137;-65
2022/04/26 20:04:38;;;;;;;9.65;5.50;;;;;;;12.78;80.52;101938.38;10169846;28;20074;-65
2022/04/26 20:09:35;;;;;;;8.00;4.85;;;;;;;12.77;82.00;101937.59;10183750;28;20046;-64
2022/04/26 20:14:31;;;;;;;8.75;5.22;;;;;;;12.74;84.05;101943.69;10168767;28;20471;-65
2022/04/26 20:19:28;;;;;;;12.57;6.03;;;;;;;12.58;85.17;101939.59;10167141;28;20057;-64
2022/04/26 20:24:25;;;;;;;10.60;5.63;;;;;;;12.48;88.73;101939.75;10161780;28;20565;-65
2022/04/26 20:34:37;;;;;;;10.60;6.38;;;;;;;12.17;90.28;101963.00;10169488;28;20046;-65
2022/04/26 20:39:36;;;;;;;10.13;6.07;;;;;;;12.09;91.21;101973.81;10195731;28;20046;-65
2022/04/26 20:44:33;;;;;;;8.43;4.90;;;;;;;12.04;92.49;101973.91;10200057;28;20077;-65
2022/04/26 20:49:30;;;;;;;10.65;5.85;;;;;;;11.91;94.75;101980.97;10195899;28;20057;-64
2022/04/26 20:54:27;;;;;;;9.10;5.40;;;;;;;11.83;92.27;101979.66;10178969;28;20153;-65
2022/04/26 20:59:23;;;;;;;10.38;6.22;;;;;;;11.72;93.86;101980.91;10195151;28;20050;-65
2022/04/26 21:04:20;;;;;;;8.70;5.40;;;;;;;11.69;95.23;101989.72;10175351;28;20089;-64
2022/04/26 21:09:18;;;;;;;11.40;5.32;;;;;;;11.55;94.02;101986.88;10186274;28;20070;-64
2022/04/26 21:14:15;;;;;;;7.53;4.03;;;;;;;11.57;93.06;101993.69;10164540;28;20045;-65
2022/04/26 21:19:11;;;;;;;7.93;4.03;;;;;;;11.52;95.37;101993.75;10169676;28;20046;-64
2022/04/26 21:24:08;;;;;;;8.48;4.20;;;;;;;11.48;97.11;102013.81;10163178;28;20046;-64
2022/04/26 21:29:04;;;;;;;11.23;4.45;;;;;;;11.43;95.91;102005.66;10169007;28;20551;-65
2022/04/26 21:34:01;;;;;;;8.38;4.20;;;;;;;11.42;96.14;102012.22;10161117;28;20138;-65
2022/04/26 21:38:59;;;;;;;9.93;4.45;;;;;;;11.24;99.66;102024.78;10156784;28;20077;-64
2022/04/26 21:43:55;;;;;;;6.78;3.45;;;;;;;11.01;100.00;102029.91;10159632;28;20084;-65
2022/04/26 21:48:52;;;;;;;10.48;3.20;;;;;;;10.93;100.00;102033.28;10193843;28;20469;-64
2022/04/26 21:53:48;;;;;;;9.77;3.60;;;;;;;10.86;100.00;102032.78;10181677;28;20657;-64
2022/04/26 21:58:45;;;;;;;12.40;3.30;;;;;;;10.81;100.00;102038.31;10193261;28;20053;-65
2022/04/26 22:03:41;;;;;;;8.45;3.17;;;;;;;10.80;100.00;102031.22;10168593;28;20621;-65
2022/04/26 22:08:38;;;;;;;7.32;2.80;;;;;;;10.70;100.00;102043.88;10193058;28;20514;-64
2022/04/26 22:13:36;;;;;;;6.85;3.20;;;;;;;10.69;100.00;102042.22;10193280;28;20073;-64
2022/04/26 22:18:32;;;;;;;10.80;3.42;;;;;;;10.71;100.00;102047.44;10183509;28;20046;-64
2022/04/26 22:23:29;;;;;;;6.47;2.70;;;;;;;10.82;100.00;102048.16;10156696;28;20125;-64
2022/04/26 22:28:25;;;;;;;13.40;3.10;;;;;;;10.83;100.00;102047.06;10182289;28;20050;-65
2022/04/26 22:33:22;;;;;;;10.57;2.92;;;;;;;10.63;100.00;102046.13;10155795;28;20077;-64
2022/04/26 22:38:19;;;;;;;10.45;3.30;;;;;;;10.53;100.00;102057.13;10180400;28;20084;-64
2022/04/26 22:43:15;;;;;;;10.90;3.00;;;;;;;10.42;100.00;102066.50;10158015;28;20154;-64
2022/04/26 22:48:12;;;;;;;10.80;3.30;;;;;;;10.33;100.00;102074.50;10175289;28;20551;-64
2022/04/26 22:53:08;;;;;;;10.77;3.35;;;;;;;10.39;100.00;102088.94;10161578;28;20046;-64
2022/04/26 22:58:04;;;;;;;12.00;3.47;;;;;;;10.21;100.00;102083.03;10199592;28;20081;-64
2022/04/26 23:03:01;;;;;;;10.75;2.97;;;;;;;10.02;100.00;102101.16;10199389;28;20137;-64
2022/04/26 23:07:57;;;;;;;10.40;2.97;;;;;;;10.11;100.00;102102.19;10199791;28;20054;-64
2022/04/26 23:12:54;;;;;;;7.53;3.05;;;;;;;9.98;100.00;102111.00;10177074;28;20042;-65
2022/04/26 23:17:50;;;;;;;12.50;4.38;;;;;;;9.96;100.00;102107.75;10198306;28;20077;-65
2022/04/26 23:22:48;;;;;;;10.18;3.67;;;;;;;9.89;100.00;102108.84;10161804;28;20050;-65
2022/04/26 23:27:45;;;;;;;17.00;3.80;;;;;;;9.90;100.00;102115.94;10194148;28;20054;-64
2022/04/26 23:32:41;;;;;;;11.20;4.38;;;;;;;9.53;100.00;102121.78;10159029;28;20057;-64
2022/04/26 23:37:37;;;;;;;10.32;3.45;;;;;;;9.55;100.00;102110.59;10183137;28;20576;-64
2022/04/26 23:42:34;;;;;;;10.55;3.80;;;;;;;9.55;100.00;102113.31;10159099;28;20153;-65
2022/04/26 23:47:33;;;;;;;11.38;3.28;;;;;;;9.58;100.00;102112.75;10180766;28;20132;-64
2022/04/26 23:57:45;;;;;;;11.93;3.78;;;;;;;9.41;100.00;102124.81;10171598;28;20051;-64
